Time;durP1;ratioP1;P1;durP2;ratioP2;P2;SDS_P1;SDS_P2;PMS_P1;PMS_P2;Temp;Humidity;BMP_temperature;BMP_pressure;BME280_temperature;BME280_humidity;BME280_pressure;Samples;Min_cycle;Max_cycle;Signal;HPM_P1;HPM_P2
2021/03/17 00:01:36;;;;;;;3.03;1.60;;;;;;;;;;5011698;28;20107;-76
2021/03/17 00:04:02;;;;;;;2.83;1.85;;;;;;;;;;5053349;28;20033;-75
2021/03/17 00:06:28;;;;;;;2.40;1.48;;;;;;;;;;5010958;28;20033;-75
2021/03/17 00:08:53;;;;;;;3.08;1.60;;;;;;;;;;5035070;28;20048;-75
2021/03/17 00:11:19;;;;;;;2.58;1.40;;;;;;;;;;5035191;28;20029;-76
2021/03/17 00:13:46;;;;;;;2.50;1.75;;;;;;;;;;5052063;28;20095;-76
2021/03/17 00:16:12;;;;;;;2.45;1.52;;;;;;;;;;5034923;28;20031;-76
2021/03/17 00:18:37;;;;;;;3.60;1.67;;;;;;;;;;5021237;28;20116;-76
2021/03/17 00:21:03;;;;;;;2.80;1.33;;;;;;;;;;5002069;28;20033;-76
2021/03/17 00:23:28;;;;;;;2.67;1.38;;;;;;;;;;5035159;28;20411;-76
2021/03/17 00:25:54;;;;;;;1.98;1.25;;;;;;;;;;5032888;28;20060;-76
2021/03/17 00:28:19;;;;;;;1.80;1.02;;;;;;;;;;5034876;28;20107;-76
2021/03/17 00:30:45;;;;;;;1.88;1.08;;;;;;;;;;5017853;28;20033;-76
2021/03/17 00:33:11;;;;;;;2.15;1.13;;;;;;;;;;5051047;28;20044;-76
2021/03/17 00:35:37;;;;;;;2.78;1.45;;;;;;;;;;5034455;28;20111;-76
2021/03/17 00:38:04;;;;;;;1.67;0.95;;;;;;;;;;5035432;28;20167;-76
2021/03/17 00:40:29;;;;;;;1.80;1.00;;;;;;;;;;5034444;28;20053;-76
2021/03/17 00:42:55;;;;;;;1.85;1.10;;;;;;;;;;5042190;28;20107;-76
2021/03/17 00:45:21;;;;;;;1.85;1.13;;;;;;;;;;5018045;28;20025;-75
2021/03/17 00:47:47;;;;;;;2.50;1.25;;;;;;;;;;5033793;28;20049;-76
2021/03/17 00:50:14;;;;;;;1.75;1.10;;;;;;;;;;5033606;28;20127;-76
2021/03/17 00:52:39;;;;;;;2.17;0.95;;;;;;;;;;5034339;28;20043;-76
2021/03/17 00:55:05;;;;;;;2.22;0.98;;;;;;;;;;5026559;28;20022;-76
2021/03/17 00:57:31;;;;;;;1.60;0.90;;;;;;;;;;5034527;28;20118;-75
2021/03/17 00:59:57;;;;;;;2.25;0.90;;;;;;;;;;5033984;28;20033;-76
2021/03/17 01:02:22;;;;;;;1.83;0.90;;;;;;;;;;5018009;28;20095;-76
2021/03/17 01:04:48;;;;;;;1.70;0.90;;;;;;;;;;5017387;28;20037;-76
2021/03/17 01:07:17;;;;;;;2.35;1.08;;;;;;;;;;5034467;28;20041;-76
2021/03/17 01:09:42;;;;;;;1.55;1.05;;;;;;;;;;5016532;28;20099;-76
2021/03/17 01:12:11;;;;;;;1.23;0.75;;;;;;;;;;5034249;28;20491;-76
2021/03/17 01:14:37;;;;;;;1.10;0.80;;;;;;;;;;5033934;28;20083;-76
2021/03/17 01:17:03;;;;;;;1.67;0.88;;;;;;;;;;5016176;28;20029;-75
2021/03/17 01:19:30;;;;;;;1.90;1.08;;;;;;;;;;5002171;28;20068;-75
2021/03/17 01:21:55;;;;;;;2.65;1.10;;;;;;;;;;5006694;28;20495;-75
2021/03/17 01:24:21;;;;;;;1.45;0.73;;;;;;;;;;5033751;28;20064;-75
2021/03/17 01:26:46;;;;;;;1.60;1.00;;;;;;;;;;5050889;28;20110;-76
2021/03/17 01:29:12;;;;;;;1.80;1.05;;;;;;;;;;5050459;28;20108;-75
2021/03/17 01:31:37;;;;;;;1.90;0.90;;;;;;;;;;5033864;28;20442;-75
2021/03/17 01:34:03;;;;;;;1.77;0.88;;;;;;;;;;5015568;28;20052;-76
2021/03/17 01:36:28;;;;;;;1.77;1.00;;;;;;;;;;5033946;28;20403;-75
2021/03/17 01:38:54;;;;;;;1.70;1.08;;;;;;;;;;5030824;28;20072;-75
2021/03/17 01:41:19;;;;;;;2.10;0.90;;;;;;;;;;5050145;28;20403;-76
2021/03/17 01:43:44;;;;;;;2.47;1.08;;;;;;;;;;5033545;28;20045;-75
2021/03/17 01:46:10;;;;;;;2.35;1.00;;;;;;;;;;5033164;28;20033;-75
2021/03/17 01:48:36;;;;;;;2.17;1.17;;;;;;;;;;5058385;28;20412;-75
2021/03/17 01:51:08;;;;;;;1.63;0.88;;;;;;;;;;5033175;28;20068;-75
2021/03/17 01:53:35;;;;;;;1.90;1.30;;;;;;;;;;5034647;28;20044;-75
2021/03/17 01:56:01;;;;;;;1.63;0.95;;;;;;;;;;5033830;28;20037;-75
2021/03/17 01:58:26;;;;;;;2.13;1.25;;;;;;;;;;5049107;28;20066;-75
2021/03/17 02:00:52;;;;;;;3.95;1.73;;;;;;;;;;5029511;28;20167;-75
2021/03/17 02:03:18;;;;;;;2.05;1.30;;;;;;;;;;5013098;28;20052;-75
2021/03/17 02:05:45;;;;;;;1.80;1.30;;;;;;;;;;5030658;28;20503;-76
2021/03/17 02:08:18;;;;;;;1.85;1.20;;;;;;;;;;5014547;28;20064;-75
2021/03/17 02:10:44;;;;;;;2.42;1.17;;;;;;;;;;5031105;28;20530;-75
2021/03/17 02:13:22;;;;;;;1.77;1.20;;;;;;;;;;4997681;28;20099;-75
2021/03/17 02:16:18;;;;;;;1.98;1.10;;;;;;;;;;5031973;28;20036;-75
2021/03/17 02:19:04;;;;;;;2.20;1.30;;;;;;;;;;5051152;28;20033;-75
2021/03/17 02:21:59;;;;;;;2.45;1.40;;;;;;;;;;5035402;28;20037;-75
2021/03/17 02:24:28;;;;;;;2.03;1.25;;;;;;;;;;5018175;28;20048;-76
2021/03/17 02:27:14;;;;;;;2.05;0.90;;;;;;;;;;5033573;28;20115;-75
2021/03/17 02:29:58;;;;;;;2.90;1.15;;;;;;;;;;5049626;28;20037;-75
2021/03/17 02:32:32;;;;;;;1.52;0.90;;;;;;;;;;5038341;28;20088;-75
2021/03/17 02:34:59;;;;;;;2.85;1.20;;;;;;;;;;5030425;28;20133;-76
2021/03/17 02:37:25;;;;;;;2.97;1.40;;;;;;;;;;4997685;28;20064;-75
2021/03/17 02:40:09;;;;;;;1.65;0.80;;;;;;;;;;5030407;28;20037;-76
2021/03/17 02:42:42;;;;;;;1.35;0.82;;;;;;;;;;5038639;28;20458;-76
2021/03/17 02:45:13;;;;;;;1.45;0.75;;;;;;;;;;5050288;28;20075;-76
2021/03/17 02:47:59;;;;;;;1.77;0.90;;;;;;;;;;5033536;28;20037;-76
2021/03/17 02:50:25;;;;;;;1.75;1.00;;;;;;;;;;5035714;28;20049;-76
2021/03/17 02:52:52;;;;;;;1.63;0.82;;;;;;;;;;4997184;28;20040;-76
2021/03/17 02:55:18;;;;;;;1.73;1.00;;;;;;;;;;4997652;28;20534;-76
2021/03/17 02:57:43;;;;;;;2.08;1.10;;;;;;;;;;4997319;28;20069;-76
2021/03/17 03:00:11;;;;;;;2.05;0.80;;;;;;;;;;5029488;28;20088;-76
2021/03/17 03:02:36;;;;;;;1.58;0.93;;;;;;;;;;5014174;28;20037;-76
2021/03/17 03:05:02;;;;;;;1.15;0.60;;;;;;;;;;5013399;28;20558;-76
2021/03/17 03:07:27;;;;;;;1.55;0.90;;;;;;;;;;5013870;28;20458;-76
2021/03/17 03:09:53;;;;;;;1.30;0.77;;;;;;;;;;5017671;28;20156;-76
2021/03/17 03:12:18;;;;;;;1.52;0.75;;;;;;;;;;5037012;28;20048;-76
2021/03/17 03:14:44;;;;;;;1.50;0.70;;;;;;;;;;5016473;28;20396;-76
2021/03/17 03:17:09;;;;;;;1.67;0.60;;;;;;;;;;5033551;28;20411;-76
2021/03/17 03:19:45;;;;;;;1.58;0.65;;;;;;;;;;5041073;28;20040;-75
2021/03/17 03:22:11;;;;;;;1.48;0.70;;;;;;;;;;5036988;28;20593;-76
2021/03/17 03:24:36;;;;;;;1.27;0.85;;;;;;;;;;5036284;28;20037;-75
2021/03/17 03:27:02;;;;;;;2.75;1.00;;;;;;;;;;5038410;28;20038;-76
2021/03/17 03:29:28;;;;;;;2.70;0.90;;;;;;;;;;5016703;28;20044;-76
2021/03/17 03:31:54;;;;;;;1.42;0.70;;;;;;;;;;5016723;28;20049;-76
2021/03/17 03:34:19;;;;;;;1.23;0.65;;;;;;;;;;5047083;28;20118;-75
2021/03/17 03:36:45;;;;;;;1.83;1.05;;;;;;;;;;5036517;28;20557;-75
2021/03/17 03:39:15;;;;;;;1.48;0.80;;;;;;;;;;5052965;28;20037;-76
2021/03/17 03:41:40;;;;;;;1.77;1.17;;;;;;;;;;5052740;28;20037;-76
2021/03/17 03:44:06;;;;;;;1.10;0.75;;;;;;;;;;5035930;28;20049;-75
2021/03/17 03:46:35;;;;;;;2.17;0.80;;;;;;;;;;5036308;28;20403;-75
2021/03/17 03:49:01;;;;;;;1.42;0.80;;;;;;;;;;5036489;28;20047;-75
2021/03/17 03:51:26;;;;;;;1.60;0.90;;;;;;;;;;5052557;28;20037;-75
2021/03/17 03:54:20;;;;;;;1.52;0.90;;;;;;;;;;5036082;28;20033;-76
2021/03/17 03:56:59;;;;;;;1.58;0.70;;;;;;;;;;5052746;28;20469;-76
2021/03/17 03:59:31;;;;;;;2.15;1.00;;;;;;;;;;5035686;28;20138;-76
2021/03/17 04:01:59;;;;;;;1.30;0.70;;;;;;;;;;5036365;28;20040;-76
2021/03/17 04:04:26;;;;;;;1.55;0.70;;;;;;;;;;5036725;28;20049;-75
2021/03/17 04:06:54;;;;;;;1.08;0.63;;;;;;;;;;5019842;28;20086;-76
2021/03/17 04:09:25;;;;;;;1.02;0.60;;;;;;;;;;5020066;28;20037;-76
2021/03/17 04:11:53;;;;;;;1.45;0.80;;;;;;;;;;5016022;28;20132;-75
2021/03/17 04:14:18;;;;;;;1.65;0.90;;;;;;;;;;5008821;28;20047;-75
2021/03/17 04:16:43;;;;;;;1.30;0.85;;;;;;;;;;5019395;28;20127;-75
2021/03/17 04:19:09;;;;;;;1.83;1.08;;;;;;;;;;5035082;28;20067;-75
2021/03/17 04:21:35;;;;;;;1.55;0.93;;;;;;;;;;5030169;28;20393;-76
2021/03/17 04:24:02;;;;;;;1.17;0.77;;;;;;;;;;5015839;28;20038;-76
2021/03/17 04:26:28;;;;;;;1.90;1.00;;;;;;;;;;5015651;28;20060;-75
2021/03/17 04:28:54;;;;;;;1.40;0.98;;;;;;;;;;5016005;28;20551;-75
2021/03/17 04:31:20;;;;;;;1.02;0.70;;;;;;;;;;5015659;28;20046;-75
2021/03/17 04:33:45;;;;;;;1.65;0.90;;;;;;;;;;5032174;28;20384;-76
2021/03/17 04:36:11;;;;;;;1.67;0.85;;;;;;;;;;5015890;28;20523;-75
2021/03/17 04:38:37;;;;;;;1.40;0.70;;;;;;;;;;5019141;28;20045;-76
2021/03/17 04:41:03;;;;;;;1.27;0.60;;;;;;;;;;5018374;28;20048;-75
2021/03/17 04:43:28;;;;;;;0.80;0.60;;;;;;;;;;5015301;28;20049;-75
2021/03/17 04:45:53;;;;;;;2.97;1.73;;;;;;;;;;5031710;28;20079;-75
2021/03/17 04:48:19;;;;;;;1.75;0.85;;;;;;;;;;5031893;28;20037;-75
2021/03/17 04:50:45;;;;;;;1.50;0.68;;;;;;;;;;5025419;28;20415;-76
2021/03/17 04:53:11;;;;;;;1.35;0.65;;;;;;;;;;5031798;28;20033;-75
2021/03/17 04:55:37;;;;;;;0.80;0.50;;;;;;;;;;5031534;28;20500;-75
2021/03/17 04:58:02;;;;;;;1.83;0.90;;;;;;;;;;5031690;28;20079;-75
2021/03/17 05:00:28;;;;;;;0.82;0.50;;;;;;;;;;5047736;28;20122;-75
2021/03/17 05:03:00;;;;;;;0.90;0.70;;;;;;;;;;5030804;28;20045;-75
2021/03/17 05:05:27;;;;;;;2.38;0.40;;;;;;;;;;5034580;28;20029;-75
2021/03/17 05:07:53;;;;;;;0.93;0.50;;;;;;;;;;5051350;28;20106;-75
2021/03/17 05:10:19;;;;;;;0.85;0.57;;;;;;;;;;5034376;28;20574;-75
2021/03/17 05:12:44;;;;;;;0.85;0.55;;;;;;;;;;5051321;28;20049;-75
2021/03/17 05:15:10;;;;;;;1.05;0.32;;;;;;;;;;5030102;28;20065;-75
2021/03/17 05:17:37;;;;;;;1.00;0.50;;;;;;;;;;5004834;28;20059;-75
2021/03/17 05:20:10;;;;;;;0.85;0.43;;;;;;;;;;5017819;28;20095;-76
2021/03/17 05:22:36;;;;;;;1.02;0.50;;;;;;;;;;4998315;28;20415;-75
2021/03/17 05:25:05;;;;;;;0.82;0.50;;;;;;;;;;5014454;28;20025;-75
2021/03/17 05:27:31;;;;;;;1.25;0.40;;;;;;;;;;5031733;28;20033;-76
2021/03/17 05:29:56;;;;;;;0.90;0.47;;;;;;;;;;5031115;28;20040;-75
2021/03/17 05:32:22;;;;;;;0.88;0.40;;;;;;;;;;5014508;28;20046;-76
2021/03/17 05:34:55;;;;;;;0.63;0.35;;;;;;;;;;5030463;28;20414;-76
2021/03/17 05:37:21;;;;;;;0.80;0.50;;;;;;;;;;5031313;28;20037;-76
2021/03/17 05:39:47;;;;;;;0.82;0.45;;;;;;;;;;5030913;28;20041;-76
2021/03/17 05:42:12;;;;;;;0.70;0.40;;;;;;;;;;5030738;28;20045;-76
2021/03/17 05:44:38;;;;;;;1.23;0.60;;;;;;;;;;5030493;28;20411;-76
2021/03/17 05:47:03;;;;;;;1.20;0.50;;;;;;;;;;5030950;28;20037;-75
2021/03/17 05:49:29;;;;;;;0.85;0.30;;;;;;;;;;5047085;28;20464;-77
2021/03/17 05:51:54;;;;;;;1.88;0.63;;;;;;;;;;5045212;28;20387;-77
2021/03/17 05:54:20;;;;;;;1.23;0.30;;;;;;;;;;5011025;28;20037;-78
2021/03/17 05:56:45;;;;;;;3.55;0.40;;;;;;;;;;5045324;28;20407;-77
2021/03/17 05:59:10;;;;;;;2.25;0.70;;;;;;;;;;5013836;28;20515;-77
2021/03/17 06:01:36;;;;;;;1.63;0.70;;;;;;;;;;5009694;28;20064;-77
2021/03/17 06:04:02;;;;;;;2.13;0.45;;;;;;;;;;5013933;28;20522;-76
2021/03/17 06:06:28;;;;;;;3.58;0.52;;;;;;;;;;5033610;28;20037;-76
2021/03/17 06:08:54;;;;;;;3.83;0.70;;;;;;;;;;5045319;28;20569;-75
2021/03/17 06:11:20;;;;;;;1.77;0.60;;;;;;;;;;5014020;28;20056;-76
2021/03/17 06:13:47;;;;;;;2.30;0.60;;;;;;;;;;5003117;28;20127;-75
2021/03/17 06:16:13;;;;;;;4.93;0.88;;;;;;;;;;5017716;28;20037;-76
2021/03/17 06:19:06;;;;;;;4.55;1.00;;;;;;;;;;5018722;28;20582;-76
2021/03/17 06:21:31;;;;;;;3.30;1.00;;;;;;;;;;5013932;28;20041;-75
2021/03/17 06:23:57;;;;;;;4.07;0.80;;;;;;;;;;4997670;28;20041;-76
2021/03/17 06:26:23;;;;;;;4.88;0.75;;;;;;;;;;5029421;28;20038;-75
2021/03/17 06:28:48;;;;;;;5.55;1.20;;;;;;;;;;5013855;28;20492;-76
2021/03/17 06:31:13;;;;;;;6.88;1.77;;;;;;;;;;5029833;28;20060;-76
2021/03/17 06:33:39;;;;;;;13.23;1.98;;;;;;;;;;5006554;28;20044;-76
2021/03/17 06:36:12;;;;;;;13.20;2.05;;;;;;;;;;5013566;28;20038;-76
2021/03/17 06:38:38;;;;;;;10.73;1.90;;;;;;;;;;5024104;28;20044;-75
2021/03/17 06:41:03;;;;;;;7.95;2.20;;;;;;;;;;5015610;28;20411;-76
2021/03/17 06:43:39;;;;;;;8.95;1.70;;;;;;;;;;5050766;28;20048;-76
2021/03/17 06:46:05;;;;;;;12.30;2.10;;;;;;;;;;5049270;28;20029;-76
2021/03/17 06:48:32;;;;;;;7.20;1.70;;;;;;;;;;5021389;28;20029;-76
2021/03/17 06:51:04;;;;;;;5.68;1.60;;;;;;;;;;5034725;28;20045;-76
2021/03/17 06:53:40;;;;;;;10.85;3.17;;;;;;;;;;5053444;28;20037;-76
2021/03/17 06:56:19;;;;;;;12.77;7.90;;;;;;;;;;5034273;28;20041;-76
2021/03/17 06:58:52;;;;;;;12.63;7.28;;;;;;;;;;5020605;28;20033;-76
2021/03/17 07:01:26;;;;;;;11.75;7.32;;;;;;;;;;5037485;28;20029;-76
2021/03/17 07:04:00;;;;;;;13.65;6.80;;;;;;;;;;5054909;28;20029;-76
2021/03/17 07:06:25;;;;;;;12.43;6.97;;;;;;;;;;5037235;28;20076;-76
2021/03/17 07:08:51;;;;;;;10.20;5.45;;;;;;;;;;5038083;28;20483;-76
2021/03/17 07:11:27;;;;;;;9.70;4.97;;;;;;;;;;5036985;28;20075;-80
2021/03/17 07:13:53;;;;;;;9.68;5.18;;;;;;;;;;5048713;28;20053;-77
2021/03/17 07:16:32;;;;;;;8.23;4.50;;;;;;;;;;5036826;28;20514;-79
2021/03/17 07:18:58;;;;;;;7.70;4.60;;;;;;;;;;5022454;28;20045;-76
2021/03/17 07:21:40;;;;;;;10.40;4.75;;;;;;;;;;5032737;28;20099;-76
2021/03/17 07:24:07;;;;;;;8.98;4.68;;;;;;;;;;5001816;28;20045;-76
2021/03/17 07:26:39;;;;;;;9.70;4.35;;;;;;;;;;5033697;28;20067;-77
2021/03/17 07:29:11;;;;;;;13.23;3.83;;;;;;;;;;5033325;28;20132;-76
2021/03/17 07:31:39;;;;;;;8.68;4.03;;;;;;;;;;5034973;28;20498;-76
2021/03/17 07:34:26;;;;;;;6.95;3.65;;;;;;;;;;5020184;28;20052;-75
2021/03/17 07:36:54;;;;;;;9.02;3.97;;;;;;;;;;5052823;28;20499;-76
2021/03/17 07:39:27;;;;;;;8.60;3.95;;;;;;;;;;5020323;28;20095;-76
2021/03/17 07:41:54;;;;;;;7.13;3.25;;;;;;;;;;5004312;28;20136;-75
2021/03/17 07:44:20;;;;;;;8.60;3.72;;;;;;;;;;5036179;28;20095;-75
2021/03/17 07:46:48;;;;;;;4.28;2.95;;;;;;;;;;5036209;28;20033;-75
2021/03/17 07:49:13;;;;;;;7.35;2.88;;;;;;;;;;5036744;28;20068;-75
2021/03/17 07:51:45;;;;;;;7.68;3.35;;;;;;;;;;5035672;28;20124;-75
2021/03/17 07:54:14;;;;;;;4.32;2.90;;;;;;;;;;5036656;28;20029;-75
2021/03/17 07:56:41;;;;;;;8.77;3.10;;;;;;;;;;5019380;28;20033;-75
2021/03/17 07:59:07;;;;;;;4.10;2.70;;;;;;;;;;5019704;28;20053;-75
2021/03/17 08:01:32;;;;;;;5.68;2.50;;;;;;;;;;5019445;28;20077;-76
2021/03/17 08:03:58;;;;;;;7.15;2.70;;;;;;;;;;5035751;28;20178;-75
2021/03/17 08:06:23;;;;;;;6.47;2.90;;;;;;;;;;5019518;28;20419;-76
2021/03/17 08:08:49;;;;;;;6.00;2.67;;;;;;;;;;5019323;28;20164;-75
2021/03/17 08:11:16;;;;;;;4.20;2.60;;;;;;;;;;5052072;28;20044;-75
2021/03/17 08:13:43;;;;;;;5.93;2.17;;;;;;;;;;5035575;28;20037;-75
2021/03/17 08:16:09;;;;;;;5.45;2.08;;;;;;;;;;5035939;28;20043;-75
2021/03/17 08:18:34;;;;;;;3.63;2.03;;;;;;;;;;5019332;28;20123;-75
2021/03/17 08:21:00;;;;;;;5.47;2.10;;;;;;;;;;5052256;28;20037;-75
2021/03/17 08:23:45;;;;;;;4.45;1.63;;;;;;;;;;5035986;28;20037;-75
2021/03/17 08:26:30;;;;;;;3.70;1.85;;;;;;;;;;5035997;28;20451;-75
2021/03/17 08:28:56;;;;;;;5.90;1.85;;;;;;;;;;5052930;28;20506;-75
2021/03/17 08:31:37;;;;;;;3.13;1.80;;;;;;;;;;5035255;28;20041;-75
2021/03/17 08:34:18;;;;;;;3.55;1.50;;;;;;;;;;5052257;28;20748;-75
2021/03/17 08:36:43;;;;;;;10.73;2.08;;;;;;;;;;5052032;28;20033;-75
2021/03/17 08:39:09;;;;;;;2.45;1.65;;;;;;;;;;5019003;28;20404;-75
2021/03/17 08:41:41;;;;;;;4.57;1.85;;;;;;;;;;5035215;28;20056;-75
2021/03/17 08:44:17;;;;;;;3.10;1.58;;;;;;;;;;5053193;28;20040;-75
2021/03/17 08:46:43;;;;;;;3.35;1.85;;;;;;;;;;5035275;28;20064;-75
2021/03/17 08:49:09;;;;;;;3.20;2.13;;;;;;;;;;5051423;28;20033;-75
2021/03/17 08:51:47;;;;;;;4.30;1.50;;;;;;;;;;5007217;28;20041;-75
2021/03/17 08:54:31;;;;;;;3.95;1.88;;;;;;;;;;5031443;28;20456;-75
2021/03/17 08:56:57;;;;;;;3.55;2.10;;;;;;;;;;5031662;28;20163;-75
2021/03/17 08:59:22;;;;;;;2.50;1.50;;;;;;;;;;5048535;28;20817;-75
2021/03/17 09:01:48;;;;;;;3.67;1.70;;;;;;;;;;5031959;28;20037;-75
2021/03/17 09:05:08;;;;;;;2.25;1.27;;;;;;;;;;5048342;28;20038;-75
2021/03/17 09:07:34;;;;;;;3.20;1.38;;;;;;;;;;4990678;28;20042;-76
2021/03/17 09:10:07;;;;;;;3.88;1.40;;;;;;;;;;5006983;28;20102;-76
2021/03/17 09:12:33;;;;;;;4.28;1.70;;;;;;;;;;5030550;28;20037;-76
2021/03/17 09:15:13;;;;;;;2.85;1.25;;;;;;;;;;5055625;28;20051;-75
2021/03/17 09:17:49;;;;;;;1.83;1.30;;;;;;;;;;5072025;28;20032;-75
2021/03/17 09:20:36;;;;;;;1.83;1.20;;;;;;;;;;5054917;28;20064;-75
2021/03/17 09:23:15;;;;;;;2.05;1.20;;;;;;;;;;5071966;28;20039;-75
2021/03/17 09:25:59;;;;;;;3.13;1.00;;;;;;;;;;5038332;28;20033;-75
2021/03/17 09:28:28;;;;;;;2.03;0.90;;;;;;;;;;5054551;28;20043;-75
2021/03/17 09:30:57;;;;;;;2.83;1.17;;;;;;;;;;5054706;28;20060;-75
2021/03/17 09:33:33;;;;;;;2.33;1.00;;;;;;;;;;5071220;28;20028;-75
2021/03/17 09:36:11;;;;;;;1.60;0.93;;;;;;;;;;5070941;28;20426;-74
2021/03/17 09:38:42;;;;;;;2.38;1.35;;;;;;;;;;5021650;28;20089;-74
2021/03/17 09:41:12;;;;;;;1.73;1.00;;;;;;;;;;5054762;28;20040;-75
2021/03/17 09:43:48;;;;;;;2.40;1.20;;;;;;;;;;5054491;28;20044;-75
2021/03/17 09:46:19;;;;;;;1.67;0.95;;;;;;;;;;5070540;28;20518;-75
2021/03/17 09:48:46;;;;;;;;;;;;;;;;;;5052393;28;20114;-74
2021/03/17 09:51:15;;;;;;;1.55;0.82;;;;;;;;;;5083736;28;19959;-74
2021/03/17 09:53:40;;;;;;;2.33;1.10;;;;;;;;;;5034124;28;20423;-75
2021/03/17 09:56:06;;;;;;;1.45;0.73;;;;;;;;;;5017632;28;20033;-74
2021/03/17 09:58:31;;;;;;;1.38;0.70;;;;;;;;;;5033874;28;20106;-74
2021/03/17 10:01:07;;;;;;;2.30;1.00;;;;;;;;;;5050443;28;20051;-74
2021/03/17 10:03:32;;;;;;;3.47;0.85;;;;;;;;;;5034202;28;20067;-74
2021/03/17 10:05:58;;;;;;;2.60;0.90;;;;;;;;;;5050331;28;20032;-74
2021/03/17 10:08:23;;;;;;;1.33;0.63;;;;;;;;;;5017698;28;20078;-74
2021/03/17 10:10:48;;;;;;;2.30;0.57;;;;;;;;;;5033756;28;20090;-74
2021/03/17 10:13:15;;;;;;;1.30;0.60;;;;;;;;;;5033602;28;20483;-74
2021/03/17 10:15:40;;;;;;;2.55;0.50;;;;;;;;;;5033627;28;20037;-74
2021/03/17 10:18:06;;;;;;;2.20;0.75;;;;;;;;;;5050439;28;20041;-74
2021/03/17 10:20:31;;;;;;;2.10;0.60;;;;;;;;;;5049510;28;20048;-74
2021/03/17 10:22:58;;;;;;;1.40;0.50;;;;;;;;;;5033353;28;20405;-74
2021/03/17 10:25:26;;;;;;;1.45;0.68;;;;;;;;;;5001036;28;20029;-74
2021/03/17 10:27:53;;;;;;;1.65;1.13;;;;;;;;;;5033846;28;20488;-74
2021/03/17 10:30:29;;;;;;;1.70;0.63;;;;;;;;;;5033661;28;20060;-74
2021/03/17 10:32:55;;;;;;;2.15;0.52;;;;;;;;;;5034362;28;20045;-74
2021/03/17 10:35:21;;;;;;;1.75;0.47;;;;;;;;;;5034242;28;20079;-74
2021/03/17 10:37:47;;;;;;;1.02;0.50;;;;;;;;;;5033755;28;20584;-75
2021/03/17 10:40:14;;;;;;;1.80;0.70;;;;;;;;;;5050345;28;20403;-76
2021/03/17 10:42:49;;;;;;;1.77;0.50;;;;;;;;;;5000437;28;20041;-76
2021/03/17 10:45:22;;;;;;;0.73;0.30;;;;;;;;;;5050883;28;20041;-76
2021/03/17 10:47:47;;;;;;;0.70;0.40;;;;;;;;;;5033879;28;20095;-76
2021/03/17 10:50:18;;;;;;;0.85;0.45;;;;;;;;;;5015569;28;20034;-76
2021/03/17 10:52:45;;;;;;;1.00;0.52;;;;;;;;;;5029787;28;20040;-76
2021/03/17 10:55:22;;;;;;;1.30;0.90;;;;;;;;;;4997782;28;20037;-76
2021/03/17 10:57:48;;;;;;;1.10;0.50;;;;;;;;;;5013910;28;20488;-76
2021/03/17 11:00:18;;;;;;;1.10;0.35;;;;;;;;;;5013136;28;20056;-76
2021/03/17 11:02:44;;;;;;;1.33;0.50;;;;;;;;;;5013391;28;20053;-76
2021/03/17 11:05:26;;;;;;;1.20;0.30;;;;;;;;;;4997339;28;20034;-75
2021/03/17 11:07:56;;;;;;;0.85;0.40;;;;;;;;;;5015296;28;20049;-76
2021/03/17 11:10:30;;;;;;;1.15;0.30;;;;;;;;;;5029752;28;20038;-75
2021/03/17 11:12:56;;;;;;;0.98;0.30;;;;;;;;;;5029828;28;20041;-76
2021/03/17 11:15:25;;;;;;;0.70;0.30;;;;;;;;;;5031621;28;20079;-75
2021/03/17 11:17:52;;;;;;;0.80;0.30;;;;;;;;;;5033286;28;20033;-75
2021/03/17 11:20:18;;;;;;;0.65;0.30;;;;;;;;;;5016802;28;20091;-75
2021/03/17 11:22:43;;;;;;;1.20;0.40;;;;;;;;;;5032542;28;20045;-78
2021/03/17 11:25:09;;;;;;;1.45;0.30;;;;;;;;;;5016940;28;20503;-78
2021/03/17 11:27:35;;;;;;;0.80;0.30;;;;;;;;;;5032816;28;20045;-78
2021/03/17 11:30:00;;;;;;;0.38;0.28;;;;;;;;;;5032758;28;20033;-77
2021/03/17 11:32:29;;;;;;;0.68;0.30;;;;;;;;;;5019798;28;20403;-78
2021/03/17 11:34:54;;;;;;;0.80;0.40;;;;;;;;;;5020167;28;20037;-77
2021/03/17 11:37:20;;;;;;;0.68;0.20;;;;;;;;;;5003847;28;20619;-78
2021/03/17 11:39:45;;;;;;;0.60;0.30;;;;;;;;;;5019682;28;20040;-77
2021/03/17 11:42:10;;;;;;;0.52;0.20;;;;;;;;;;5035825;28;20416;-77
2021/03/17 11:44:36;;;;;;;0.63;0.20;;;;;;;;;;5036265;28;20446;-77
2021/03/17 11:47:01;;;;;;;0.73;0.20;;;;;;;;;;5016732;28;20127;-77
2021/03/17 11:49:28;;;;;;;2.58;0.35;;;;;;;;;;5016806;28;20034;-77
2021/03/17 11:51:53;;;;;;;2.97;0.50;;;;;;;;;;5015815;28;20056;-77
2021/03/17 11:54:18;;;;;;;4.53;0.82;;;;;;;;;;5016257;28;20037;-77
2021/03/17 11:56:44;;;;;;;4.32;0.60;;;;;;;;;;5049171;28;20033;-77
2021/03/17 11:59:10;;;;;;;2.55;0.40;;;;;;;;;;5033238;28;20389;-77
2021/03/17 12:01:35;;;;;;;4.82;0.35;;;;;;;;;;5035631;28;20111;-77
2021/03/17 12:04:00;;;;;;;5.90;0.47;;;;;;;;;;5040040;28;20111;-79
2021/03/17 12:06:26;;;;;;;3.78;0.60;;;;;;;;;;5056015;28;20128;-79
2021/03/17 12:08:51;;;;;;;4.55;0.50;;;;;;;;;;5037783;28;20409;-79
2021/03/17 12:11:18;;;;;;;3.53;0.47;;;;;;;;;;5035485;28;20387;-78
2021/03/17 12:13:43;;;;;;;1.95;0.35;;;;;;;;;;5019101;28;20041;-78
2021/03/17 12:16:09;;;;;;;3.63;0.63;;;;;;;;;;5020014;28;20036;-78
2021/03/17 12:18:35;;;;;;;4.53;0.60;;;;;;;;;;5016096;28;20094;-78
2021/03/17 12:21:01;;;;;;;2.03;0.50;;;;;;;;;;5031323;28;20036;-78
2021/03/17 12:23:26;;;;;;;2.85;0.40;;;;;;;;;;5010124;28;20033;-78
2021/03/17 12:25:52;;;;;;;3.22;0.68;;;;;;;;;;4999074;28;20030;-78
2021/03/17 12:28:17;;;;;;;1.48;0.28;;;;;;;;;;5011495;28;20037;-77
2021/03/17 12:30:43;;;;;;;2.85;0.50;;;;;;;;;;5015577;28;20041;-78
2021/03/17 12:33:08;;;;;;;4.35;0.65;;;;;;;;;;5018009;28;20033;-77
2021/03/17 12:35:34;;;;;;;4.93;0.50;;;;;;;;;;5019155;28;20183;-78
2021/03/17 12:37:59;;;;;;;1.42;0.50;;;;;;;;;;5035559;28;20040;-78
2021/03/17 12:40:26;;;;;;;3.50;0.50;;;;;;;;;;5018381;28;20080;-77
2021/03/17 12:42:51;;;;;;;5.28;0.55;;;;;;;;;;5033784;28;20041;-78
2021/03/17 12:45:19;;;;;;;1.17;0.52;;;;;;;;;;5016040;28;20063;-78
2021/03/17 12:47:45;;;;;;;2.05;0.38;;;;;;;;;;5033194;28;20056;-77
2021/03/17 12:50:12;;;;;;;3.95;0.50;;;;;;;;;;5031038;28;20029;-78
2021/03/17 12:52:37;;;;;;;2.83;0.38;;;;;;;;;;4982371;28;20088;-77
2021/03/17 12:55:04;;;;;;;1.45;0.30;;;;;;;;;;4999292;28;20041;-77
2021/03/17 12:57:30;;;;;;;3.40;0.30;;;;;;;;;;4982804;28;20044;-78
2021/03/17 12:59:57;;;;;;;3.63;0.28;;;;;;;;;;5015191;28;20420;-77
2021/03/17 13:02:23;;;;;;;3.03;0.28;;;;;;;;;;5015574;28;20037;-77
2021/03/17 13:04:49;;;;;;;2.97;0.43;;;;;;;;;;5015155;28;20034;-77
2021/03/17 13:07:14;;;;;;;1.63;0.20;;;;;;;;;;5015127;28;20052;-77
2021/03/17 13:09:39;;;;;;;0.63;0.13;;;;;;;;;;4998283;28;20037;-77
2021/03/17 13:12:05;;;;;;;1.55;0.30;;;;;;;;;;5031469;28;20048;-78
2021/03/17 13:14:30;;;;;;;1.85;0.30;;;;;;;;;;5018714;28;20059;-77
2021/03/17 13:16:57;;;;;;;2.53;0.40;;;;;;;;;;5034705;28;20114;-77
2021/03/17 13:19:22;;;;;;;2.47;0.32;;;;;;;;;;5018106;28;20041;-77
2021/03/17 13:21:49;;;;;;;1.63;0.20;;;;;;;;;;5034232;28;20033;-78
2021/03/17 13:24:14;;;;;;;1.75;0.40;;;;;;;;;;5034900;28;20102;-77
2021/03/17 13:26:40;;;;;;;1.00;0.20;;;;;;;;;;5017954;28;20033;-77
2021/03/17 13:29:06;;;;;;;2.05;0.30;;;;;;;;;;5018164;28;20037;-78
2021/03/17 13:31:32;;;;;;;1.50;0.60;;;;;;;;;;5034460;28;20043;-78
2021/03/17 13:33:57;;;;;;;2.55;0.55;;;;;;;;;;5018292;28;20036;-78
2021/03/17 13:36:22;;;;;;;2.22;0.30;;;;;;;;;;5017916;28;20036;-78
2021/03/17 13:38:48;;;;;;;1.52;0.50;;;;;;;;;;5017168;28;20041;-77
2021/03/17 13:41:13;;;;;;;1.20;0.45;;;;;;;;;;5033826;28;20525;-77
2021/03/17 13:43:39;;;;;;;1.55;0.52;;;;;;;;;;5034066;28;20052;-78
2021/03/17 13:46:04;;;;;;;3.50;1.15;;;;;;;;;;5017745;28;20419;-77
2021/03/17 13:48:29;;;;;;;1.63;0.22;;;;;;;;;;5048960;28;20418;-77
2021/03/17 13:50:55;;;;;;;1.08;0.55;;;;;;;;;;5021891;28;20041;-78
2021/03/17 13:53:20;;;;;;;1.85;0.47;;;;;;;;;;5046242;28;20048;-78
2021/03/17 13:55:46;;;;;;;3.55;0.50;;;;;;;;;;5027225;28;20029;-78
2021/03/17 13:58:11;;;;;;;2.85;0.52;;;;;;;;;;5017556;28;20041;-78
2021/03/17 14:00:37;;;;;;;4.93;0.63;;;;;;;;;;5014386;28;20065;-78
2021/03/17 14:03:02;;;;;;;2.53;0.30;;;;;;;;;;4998111;28;20041;-78
2021/03/17 14:05:28;;;;;;;1.48;0.32;;;;;;;;;;5014258;28;20018;-78
2021/03/17 14:07:54;;;;;;;5.53;0.52;;;;;;;;;;5046936;28;20033;-78
2021/03/17 14:10:21;;;;;;;6.28;0.75;;;;;;;;;;5033537;28;20035;-78
2021/03/17 14:12:47;;;;;;;4.55;0.60;;;;;;;;;;5017632;28;20581;-77
2021/03/17 14:15:14;;;;;;;6.07;0.50;;;;;;;;;;5033626;28;20061;-78
2021/03/17 14:17:39;;;;;;;4.50;0.60;;;;;;;;;;5018699;28;20115;-78
2021/03/17 14:20:08;;;;;;;5.90;0.88;;;;;;;;;;5001027;28;20461;-78
2021/03/17 14:22:34;;;;;;;2.72;0.50;;;;;;;;;;4998762;28;20099;-78
2021/03/17 14:25:00;;;;;;;5.47;0.50;;;;;;;;;;5018216;28;20507;-78
2021/03/17 14:27:25;;;;;;;3.00;0.50;;;;;;;;;;5017183;28;20095;-79
2021/03/17 14:29:51;;;;;;;3.80;0.40;;;;;;;;;;5033494;28;20032;-81
2021/03/17 14:32:16;;;;;;;2.40;0.30;;;;;;;;;;5047871;28;20041;-80
2021/03/17 14:34:44;;;;;;;4.28;0.40;;;;;;;;;;5017071;28;20534;-80
2021/03/17 14:37:09;;;;;;;1.25;0.30;;;;;;;;;;5017229;28;20559;-81
2021/03/17 14:39:35;;;;;;;3.22;0.77;;;;;;;;;;5016817;28;20041;-80
2021/03/17 14:42:00;;;;;;;2.80;0.40;;;;;;;;;;5033540;28;20041;-80
2021/03/17 14:44:26;;;;;;;5.25;0.60;;;;;;;;;;5000557;28;20037;-79
2021/03/17 14:46:51;;;;;;;3.20;0.30;;;;;;;;;;5032709;28;20388;-79
2021/03/17 14:49:17;;;;;;;3.03;0.63;;;;;;;;;;4996353;28;20026;-79